Time;durP1;ratioP1;P1;durP2;ratioP2;P2;SDS_P1;SDS_P2;PMS_P1;PMS_P2;Temp;Humidity;BMP_temperature;BMP_pressure;BME280_temperature;BME280_humidity;BME280_pressure;Samples;Min_cycle;Max_cycle;Signal;HPM_P1;HPM_P2
2022/06/19 00:00:40;;;;;;;8.00;2.55;;;15.60;99.90;;;;;;5041693;28;20208;-62
2022/06/19 00:03:10;;;;;;;8.52;2.75;;;15.60;99.90;;;;;;5007889;28;20434;-61
2022/06/19 00:05:38;;;;;;;8.25;2.35;;;15.50;99.90;;;;;;5024331;28;20205;-62
2022/06/19 00:08:05;;;;;;;18.70;3.65;;;15.50;99.90;;;;;;5011561;28;20906;-62
2022/06/19 00:10:32;;;;;;;15.95;3.05;;;15.40;99.90;;;;;;5042553;28;20196;-61
2022/06/19 00:12:59;;;;;;;15.00;3.83;;;15.50;99.90;;;;;;5019508;28;20608;-62
2022/06/19 00:15:26;;;;;;;18.95;3.75;;;15.40;99.90;;;;;;5045893;28;20849;-61
2022/06/19 00:17:53;;;;;;;17.05;2.90;;;15.40;99.90;;;;;;5032601;28;20221;-62
2022/06/19 00:20:19;;;;;;;11.93;2.60;;;15.50;99.90;;;;;;5010454;28;20398;-61
2022/06/19 00:22:48;;;;;;;16.80;2.88;;;15.40;99.90;;;;;;5039561;28;20256;-62
2022/06/19 00:25:14;;;;;;;13.00;3.25;;;16.30;99.90;;;;;;5017923;28;20219;-62
2022/06/19 00:27:41;;;;;;;11.93;3.28;;;15.50;99.90;;;;;;5031654;28;20216;-62
2022/06/19 00:30:11;;;;;;;9.15;2.80;;;15.40;99.90;;;;;;5043766;28;20189;-62
2022/06/19 00:32:38;;;;;;;13.10;3.65;;;15.40;99.90;;;;;;5031397;28;20608;-62
2022/06/19 00:35:06;;;;;;;7.80;2.25;;;15.40;99.90;;;;;;5016746;28;20582;-61
2022/06/19 00:37:34;;;;;;;16.25;2.85;;;15.30;99.90;;;;;;5035694;28;20200;-62
2022/06/19 00:40:02;;;;;;;9.65;2.78;;;15.30;99.90;;;;;;5029128;28;20698;-61
2022/06/19 00:42:29;;;;;;;11.93;3.38;;;15.20;99.90;;;;;;5046120;28;20289;-61
2022/06/19 00:44:56;;;;;;;13.02;3.35;;;15.20;99.90;;;;;;5038807;28;20305;-62
2022/06/19 00:47:26;;;;;;;21.17;3.17;;;15.30;99.90;;;;;;5040836;28;21741;-62
2022/06/19 00:49:56;;;;;;;18.02;3.45;;;15.30;99.90;;;;;;5008026;28;20641;-62
2022/06/19 00:52:26;;;;;;;15.90;3.70;;;15.10;99.90;;;;;;5028480;28;20232;-61
2022/06/19 00:54:57;;;;;;;15.77;3.22;;;16.00;99.90;;;;;;5033234;28;20604;-61
2022/06/19 00:57:27;;;;;;;12.18;2.53;;;15.20;99.90;;;;;;5028193;28;20698;-61
2022/06/19 01:00:00;;;;;;;7.05;2.92;;;15.20;99.90;;;;;;5041677;28;20379;-61
2022/06/19 01:02:26;;;;;;;15.13;3.13;;;15.20;99.90;;;;;;5044770;28;20204;-61
2022/06/19 01:04:55;;;;;;;13.70;3.33;;;15.20;99.90;;;;;;5016611;28;20827;-61
2022/06/19 01:07:27;;;;;;;10.25;2.88;;;15.20;99.90;;;;;;5030407;28;20209;-61
2022/06/19 01:09:54;;;;;;;19.08;2.92;;;15.00;99.90;;;;;;5030147;28;20770;-62
2022/06/19 01:12:23;;;;;;;15.88;2.67;;;15.00;99.90;;;;;;5033876;28;20760;-62
2022/06/19 01:14:59;;;;;;;10.75;2.55;;;15.00;99.90;;;;;;5035642;28;20666;-61
2022/06/19 01:17:26;;;;;;;11.75;3.22;;;15.10;99.90;;;;;;5051497;28;20366;-61
2022/06/19 01:19:53;;;;;;;10.40;2.67;;;15.10;99.90;;;;;;5044896;28;20192;-62
2022/06/19 01:22:26;;;;;;;13.40;3.28;;;15.20;99.90;;;;;;5026053;28;20348;-61
2022/06/19 01:25:07;;;;;;;16.67;3.42;;;15.10;99.90;;;;;;5041310;28;20829;-61
2022/06/19 01:30:22;;;;;;;10.88;3.05;;;15.00;99.90;;;;;;5043280;28;20235;-61
2022/06/19 01:32:51;;;;;;;9.05;2.10;;;15.10;99.90;;;;;;5045818;28;20228;-61
2022/06/19 01:35:21;;;;;;;11.82;3.20;;;15.20;99.90;;;;;;5047141;28;20201;-62
2022/06/19 01:37:50;;;;;;;13.32;2.88;;;15.30;99.90;;;;;;5025343;28;20327;-62
2022/06/19 01:40:21;;;;;;;6.20;2.00;;;15.40;99.90;;;;;;5044391;28;20193;-61
2022/06/19 01:42:48;;;;;;;8.48;2.22;;;15.60;99.90;;;;;;5013182;28;20203;-62
2022/06/19 01:45:15;;;;;;;13.77;2.65;;;15.20;99.90;;;;;;5045832;28;20194;-61
2022/06/19 01:47:43;;;;;;;13.77;2.55;;;15.30;99.90;;;;;;5050361;28;20207;-61
2022/06/19 01:50:12;;;;;;;10.93;2.47;;;15.30;99.90;;;;;;5026030;28;20221;-61
2022/06/19 01:52:39;;;;;;;13.07;2.72;;;15.30;99.90;;;;;;5026110;28;20311;-61
2022/06/19 01:55:10;;;;;;;18.00;2.60;;;15.30;99.90;;;;;;5046917;28;20812;-62
2022/06/19 01:57:41;;;;;;;17.17;3.45;;;15.30;99.90;;;;;;5031759;28;20209;-61
2022/06/19 02:00:11;;;;;;;12.93;2.80;;;15.40;99.90;;;;;;5020902;28;20205;-61
2022/06/19 02:02:38;;;;;;;14.93;2.80;;;15.40;99.90;;;;;;5040079;28;20208;-61
2022/06/19 02:05:05;;;;;;;12.23;3.00;;;15.40;99.90;;;;;;5046200;28;20420;-62
2022/06/19 02:07:33;;;;;;;18.50;3.10;;;15.40;99.90;;;;;;5026587;28;20209;-62
2022/06/19 02:10:01;;;;;;;12.68;2.80;;;16.50;99.90;;;;;;5027714;28;20209;-62
2022/06/19 02:12:32;;;;;;;13.65;2.55;;;15.30;99.90;;;;;;5030090;28;20575;-61
2022/06/19 02:15:01;;;;;;;12.88;2.72;;;15.30;99.90;;;;;;4997444;28;20437;-62
2022/06/19 02:17:33;;;;;;;13.18;2.25;;;15.20;99.90;;;;;;5045846;28;20202;-61
2022/06/19 02:20:00;;;;;;;10.95;2.17;;;15.20;99.90;;;;;;5037989;28;20193;-61
2022/06/19 02:22:26;;;;;;;18.63;2.85;;;14.90;99.90;;;;;;5044593;28;20196;-62
2022/06/19 02:24:53;;;;;;;9.10;2.38;;;15.00;99.90;;;;;;5020346;28;20418;-61
2022/06/19 02:27:20;;;;;;;10.95;2.72;;;15.00;99.90;;;;;;5022840;28;20228;-61
2022/06/19 02:29:47;;;;;;;12.18;3.05;;;15.10;99.90;;;;;;5008155;28;20205;-62
2022/06/19 02:32:22;;;;;;;13.63;2.88;;;15.00;99.90;;;;;;5010665;28;20589;-62
2022/06/19 02:34:50;;;;;;;10.30;2.70;;;15.00;99.90;;;;;;5042213;28;20196;-61
2022/06/19 02:37:21;;;;;;;8.23;2.17;;;14.90;99.90;;;;;;5034209;28;20642;-61
2022/06/19 02:39:55;;;;;;;9.15;2.63;;;14.90;99.90;;;;;;5017729;28;20863;-62
2022/06/19 02:42:39;;;;;;;16.80;2.75;;;14.90;99.90;;;;;;5039184;28;20457;-62
2022/06/19 02:45:11;;;;;;;15.38;2.65;;;15.00;99.90;;;;;;4999199;28;20593;-61
2022/06/19 02:47:40;;;;;;;14.95;2.80;;;15.00;99.90;;;;;;5039030;28;20271;-61
2022/06/19 02:50:09;;;;;;;14.52;2.83;;;15.00;99.90;;;;;;5019205;28;20232;-62
2022/06/19 02:52:36;;;;;;;11.63;2.65;;;15.00;99.90;;;;;;5043769;28;20597;-61
2022/06/19 02:55:03;;;;;;;8.73;2.50;;;15.00;99.90;;;;;;5028874;28;20197;-61
2022/06/19 02:57:30;;;;;;;9.13;2.63;;;15.00;99.90;;;;;;5032136;28;20221;-61
2022/06/19 02:59:57;;;;;;;8.00;2.28;;;15.00;99.90;;;;;;5017804;28;20220;-62
2022/06/19 03:02:26;;;;;;;13.63;2.58;;;15.00;99.90;;;;;;5038042;28;20585;-61
2022/06/19 03:04:56;;;;;;;11.18;2.13;;;15.00;99.90;;;;;;5015667;28;20976;-61
2022/06/19 03:07:25;;;;;;;12.32;2.13;;;15.00;99.90;;;;;;5027485;28;20200;-61
2022/06/19 03:09:52;;;;;;;8.70;2.40;;;15.00;99.90;;;;;;5021086;28;20208;-62
2022/06/19 03:12:20;;;;;;;6.65;2.28;;;15.00;99.90;;;;;;5027438;28;20231;-61
2022/06/19 03:14:47;;;;;;;11.90;2.20;;;15.00;99.90;;;;;;5039962;28;20197;-61
2022/06/19 03:17:15;;;;;;;7.97;2.42;;;15.10;99.90;;;;;;5034193;28;21009;-62
2022/06/19 03:19:42;;;;;;;8.65;1.95;;;15.10;99.90;;;;;;5044886;28;20958;-61
2022/06/19 03:22:11;;;;;;;7.07;1.90;;;15.10;99.90;;;;;;5035496;28;20529;-61
2022/06/19 03:24:39;;;;;;;8.45;1.90;;;14.90;99.90;;;;;;5012085;28;20216;-61
2022/06/19 03:27:06;;;;;;;8.77;2.25;;;15.00;99.90;;;;;;5028736;28;21009;-61
2022/06/19 03:29:34;;;;;;;11.75;2.47;;;15.10;99.90;;;;;;5043775;28;20208;-61
2022/06/19 03:32:01;;;;;;;14.57;2.65;;;15.20;99.90;;;;;;5031176;28;22193;-62
2022/06/19 03:34:27;;;;;;;10.80;2.35;;;15.20;99.90;;;;;;5041585;28;20213;-61
2022/06/19 03:36:55;;;;;;;14.00;2.50;;;15.20;99.90;;;;;;5013522;28;20493;-62
2022/06/19 03:39:24;;;;;;;15.02;3.13;;;15.20;99.90;;;;;;5042628;28;20288;-61
2022/06/19 03:41:51;;;;;;;7.90;2.35;;;15.20;99.90;;;;;;5009689;28;20247;-61
2022/06/19 03:44:17;;;;;;;9.65;1.75;;;15.30;99.90;;;;;;5042833;28;20201;-61
2022/06/19 03:46:44;;;;;;;8.32;1.80;;;15.20;99.90;;;;;;5035376;28;20204;-61
2022/06/19 03:49:11;;;;;;;8.82;2.55;;;15.30;99.90;;;;;;5018444;28;20201;-62
2022/06/19 03:51:38;;;;;;;6.45;2.50;;;15.20;99.90;;;;;;5042072;28;20196;-61
2022/06/19 03:54:07;;;;;;;5.35;1.55;;;15.60;99.90;;;;;;5021530;28;20213;-62
2022/06/19 03:56:36;;;;;;;7.80;2.10;;;15.20;99.90;;;;;;5024212;28;20220;-62
2022/06/19 03:59:04;;;;;;;9.90;1.85;;;15.30;99.90;;;;;;5033449;28;21196;-62
2022/06/19 04:01:33;;;;;;;9.35;2.05;;;15.30;99.90;;;;;;5027232;28;20223;-62
2022/06/19 04:04:00;;;;;;;12.93;1.90;;;15.30;99.90;;;;;;5019477;28;22622;-62
2022/06/19 04:06:29;;;;;;;10.80;2.30;;;15.40;99.90;;;;;;5029729;28;20205;-62
2022/06/19 04:08:57;;;;;;;7.40;2.13;;;15.30;99.90;;;;;;5035347;28;20197;-61
2022/06/19 04:11:25;;;;;;;4.47;1.50;;;15.40;99.90;;;;;;5024805;28;20517;-61
2022/06/19 04:13:54;;;;;;;9.55;1.85;;;15.30;99.90;;;;;;5033867;28;20236;-62
2022/06/19 04:16:22;;;;;;;13.00;2.55;;;15.30;99.90;;;;;;5039924;28;20228;-62
2022/06/19 04:18:51;;;;;;;14.48;3.28;;;15.20;99.90;;;;;;5047086;28;21043;-61
2022/06/19 04:21:20;;;;;;;7.88;1.92;;;15.20;99.90;;;;;;5032206;28;20201;-61
2022/06/19 04:23:49;;;;;;;11.30;2.10;;;15.20;99.90;;;;;;5039152;28;20215;-61
2022/06/19 04:26:19;;;;;;;8.63;1.88;;;15.20;99.90;;;;;;5011036;28;21265;-62
2022/06/19 04:28:45;;;;;;;9.65;2.10;;;15.20;99.90;;;;;;5031469;28;20205;-62
2022/06/19 04:31:14;;;;;;;12.57;1.92;;;15.40;99.90;;;;;;5032367;28;20224;-61
2022/06/19 04:33:40;;;;;;;8.98;1.65;;;15.30;99.90;;;;;;5024490;28;20330;-61
2022/06/19 04:36:09;;;;;;;10.40;2.15;;;15.30;99.90;;;;;;5039821;28;20252;-62
2022/06/19 04:38:37;;;;;;;9.35;1.75;;;15.30;99.90;;;;;;5048770;28;20198;-61
2022/06/19 04:41:03;;;;;;;6.30;1.92;;;15.30;99.90;;;;;;5043658;28;20213;-61
2022/06/19 04:43:30;;;;;;;13.35;2.38;;;15.40;99.90;;;;;;5031058;28;20234;-61
2022/06/19 04:46:03;;;;;;;9.38;2.17;;;15.40;99.90;;;;;;5038045;28;20204;-63
2022/06/19 04:48:31;;;;;;;9.27;1.95;;;15.40;99.90;;;;;;5034867;28;20208;-62
2022/06/19 04:50:58;;;;;;;13.30;2.40;;;15.40;99.90;;;;;;5044647;28;20205;-61
2022/06/19 04:53:25;;;;;;;8.07;2.22;;;15.40;99.90;;;;;;5037201;28;20240;-61
2022/06/19 04:55:52;;;;;;;10.60;2.83;;;15.40;99.90;;;;;;5045487;28;20806;-61
2022/06/19 04:58:22;;;;;;;5.97;1.95;;;15.40;99.90;;;;;;5027700;28;20204;-61
2022/06/19 05:00:49;;;;;;;8.77;2.42;;;15.40;99.90;;;;;;5019429;28;20232;-61
2022/06/19 05:03:16;;;;;;;9.40;2.20;;;15.40;99.90;;;;;;5036382;28;20216;-61
2022/06/19 05:05:44;;;;;;;7.18;1.83;;;15.30;99.90;;;;;;5017713;28;20609;-62
2022/06/19 05:08:11;;;;;;;9.40;2.28;;;15.40;99.90;;;;;;5046521;28;20723;-62
2022/06/19 05:10:39;;;;;;;11.98;2.33;;;15.40;99.90;;;;;;5043652;28;20228;-61
2022/06/19 05:13:07;;;;;;;9.60;2.15;;;15.50;99.90;;;;;;5009345;28;20751;-61
2022/06/19 05:15:34;;;;;;;9.02;1.75;;;15.50;99.90;;;;;;5046478;28;20570;-62
2022/06/19 05:18:01;;;;;;;10.70;2.15;;;15.50;99.90;;;;;;5033080;28;21127;-62
2022/06/19 05:20:28;;;;;;;5.30;1.83;;;15.50;99.90;;;;;;5039075;28;20211;-62
2022/06/19 05:22:56;;;;;;;6.95;2.25;;;14.30;99.90;;;;;;5046431;28;20205;-61
2022/06/19 05:25:24;;;;;;;10.15;2.20;;;15.50;99.90;;;;;;5045586;28;20282;-62
2022/06/19 05:27:51;;;;;;;8.57;2.08;;;15.50;99.90;;;;;;5027405;28;20206;-62
2022/06/19 05:30:18;;;;;;;9.40;2.33;;;15.40;99.90;;;;;;5039913;28;20206;-62
2022/06/19 05:32:44;;;;;;;8.50;2.08;;;15.40;99.90;;;;;;5026640;28;20225;-62
2022/06/19 05:35:11;;;;;;;10.05;2.38;;;15.40;99.90;;;;;;5037480;28;20200;-61
2022/06/19 05:37:38;;;;;;;7.38;2.35;;;15.40;99.90;;;;;;5049335;28;20212;-61
2022/06/19 05:40:09;;;;;;;8.50;2.50;;;15.60;99.90;;;;;;5031184;28;20300;-62
2022/06/19 05:42:36;;;;;;;8.68;2.20;;;15.60;99.90;;;;;;5049798;28;20674;-62
2022/06/19 05:45:03;;;;;;;9.13;2.40;;;15.70;99.90;;;;;;5018078;28;20209;-62
2022/06/19 05:47:30;;;;;;;7.70;2.00;;;15.80;99.90;;;;;;5044455;28;20624;-61
2022/06/19 05:49:57;;;;;;;8.45;1.70;;;15.80;99.90;;;;;;5041772;28;20743;-62
2022/06/19 05:52:25;;;;;;;12.43;2.05;;;15.80;99.90;;;;;;5033840;28;20211;-62
2022/06/19 05:54:53;;;;;;;10.02;1.80;;;15.80;99.90;;;;;;5045407;28;20207;-61
2022/06/19 05:57:21;;;;;;;7.93;2.55;;;15.80;99.90;;;;;;5031009;28;20205;-62
2022/06/19 05:59:48;;;;;;;12.25;2.25;;;15.80;99.90;;;;;;5037071;28;20205;-61
2022/06/19 06:02:21;;;;;;;9.98;2.65;;;15.70;99.90;;;;;;5021335;28;20339;-61
2022/06/19 06:04:48;;;;;;;9.48;2.28;;;15.70;99.90;;;;;;5027774;28;20720;-61
2022/06/19 06:07:15;;;;;;;6.25;1.88;;;15.70;99.90;;;;;;5035761;28;20620;-62
2022/06/19 06:09:42;;;;;;;7.68;1.58;;;15.80;99.90;;;;;;5018404;28;20208;-62
2022/06/19 06:12:09;;;;;;;9.38;2.00;;;15.60;99.90;;;;;;5054195;28;20778;-61
2022/06/19 06:14:37;;;;;;;3.92;1.70;;;15.60;99.90;;;;;;5029706;28;20781;-62
2022/06/19 06:17:05;;;;;;;7.90;2.22;;;15.60;99.90;;;;;;5031761;28;20204;-61
2022/06/19 06:19:33;;;;;;;7.32;2.40;;;15.60;99.90;;;;;;5036248;28;20666;-62
2022/06/19 06:22:01;;;;;;;7.32;1.80;;;15.80;99.90;;;;;;5034045;28;20201;-62
2022/06/19 06:24:28;;;;;;;9.35;2.28;;;15.70;99.90;;;;;;5017549;28;20209;-62
2022/06/19 06:26:55;;;;;;;5.47;1.88;;;15.90;99.90;;;;;;5031747;28;20217;-61
2022/06/19 06:29:22;;;;;;;7.88;1.75;;;15.90;99.90;;;;;;5029855;28;20200;-61
2022/06/19 06:31:50;;;;;;;6.55;1.80;;;16.00;99.90;;;;;;5038534;28;20800;-62
2022/06/19 06:34:17;;;;;;;3.55;1.40;;;15.90;99.90;;;;;;5029638;28;20233;-62
2022/06/19 06:36:44;;;;;;;5.55;1.50;;;15.90;99.90;;;;;;5034949;28;20266;-62
2022/06/19 06:39:11;;;;;;;4.72;1.67;;;15.80;99.90;;;;;;5027841;28;20643;-61
2022/06/19 06:41:38;;;;;;;8.45;1.92;;;15.90;99.90;;;;;;5014104;28;20217;-61
2022/06/19 06:44:05;;;;;;;4.63;1.90;;;15.90;99.90;;;;;;5029012;28;20795;-61
2022/06/19 06:46:32;;;;;;;7.45;1.60;;;15.90;99.90;;;;;;5006212;28;20231;-61
2022/06/19 06:49:02;;;;;;;3.72;1.30;;;15.90;99.90;;;;;;5032257;28;20594;-62
2022/06/19 06:51:30;;;;;;;4.00;1.52;;;15.90;99.90;;;;;;5028379;28;20220;-61
2022/06/19 06:53:58;;;;;;;5.43;2.08;;;15.90;99.90;;;;;;5020591;28;20228;-61
2022/06/19 06:56:25;;;;;;;5.85;1.77;;;16.00;99.90;;;;;;5033028;28;20205;-62
2022/06/19 06:58:52;;;;;;;5.80;1.73;;;16.00;99.90;;;;;;5029982;28;20212;-61
2022/06/19 07:01:22;;;;;;;6.78;1.63;;;16.10;99.90;;;;;;5004316;28;21289;-62
2022/06/19 07:03:54;;;;;;;12.70;2.10;;;16.20;99.90;;;;;;5046157;28;20788;-62
2022/06/19 07:06:22;;;;;;;7.80;1.90;;;16.20;99.90;;;;;;5027907;28;20201;-61
2022/06/19 07:08:49;;;;;;;5.25;1.80;;;16.40;99.90;;;;;;5039200;28;20196;-62
2022/06/19 07:11:20;;;;;;;7.93;1.95;;;16.40;99.90;;;;;;5013300;28;20246;-62
2022/06/19 07:13:47;;;;;;;5.65;1.58;;;16.40;99.90;;;;;;5036822;28;20229;-62
2022/06/19 07:16:14;;;;;;;6.25;1.75;;;16.40;99.90;;;;;;5019233;28;20232;-61
2022/06/19 07:18:41;;;;;;;4.78;1.83;;;16.40;99.90;;;;;;5028588;28;20581;-62
2022/06/19 07:21:10;;;;;;;6.57;2.08;;;16.30;99.90;;;;;;5033068;28;20193;-62
2022/06/19 07:23:38;;;;;;;7.03;1.65;;;16.20;99.90;;;;;;5014816;28;20212;-62
2022/06/19 07:26:09;;;;;;;3.65;1.67;;;16.20;99.90;;;;;;5046939;28;20192;-62
2022/06/19 07:28:36;;;;;;;5.75;1.95;;;16.20;99.90;;;;;;5017438;28;20201;-60
2022/06/19 07:31:03;;;;;;;4.78;2.15;;;16.30;99.90;;;;;;5041422;28;20204;-61
2022/06/19 07:33:29;;;;;;;5.32;1.85;;;16.20;99.90;;;;;;4992273;28;20240;-62
2022/06/19 07:35:56;;;;;;;3.55;1.77;;;16.40;99.90;;;;;;5033545;28;20205;-61
2022/06/19 07:38:23;;;;;;;8.82;2.05;;;16.50;99.90;;;;;;5030107;28;20205;-62
2022/06/19 07:40:51;;;;;;;9.77;1.60;;;16.30;99.90;;;;;;5021489;28;20220;-61
2022/06/19 07:43:18;;;;;;;9.68;1.92;;;16.50;99.90;;;;;;5021165;28;20209;-61
2022/06/19 07:45:45;;;;;;;6.45;1.60;;;16.20;99.90;;;;;;5026413;28;20220;-62
2022/06/19 07:50:56;;;;;;;8.57;1.77;;;16.50;99.90;;;;;;5043052;28;20731;-62
2022/06/19 07:53:23;;;;;;;2.33;1.30;;;16.60;99.90;;;;;;5030413;28;20960;-62
2022/06/19 07:55:51;;;;;;;6.38;2.05;;;16.60;99.90;;;;;;5008063;28;20227;-62
2022/06/19 07:58:18;;;;;;;4.60;1.95;;;16.60;99.90;;;;;;5022856;28;20220;-62
2022/06/19 08:00:45;;;;;;;6.53;1.92;;;16.40;99.90;;;;;;5001917;28;20232;-62
2022/06/19 08:03:12;;;;;;;8.82;2.15;;;16.60;99.90;;;;;;5003441;28;20871;-62
2022/06/19 08:05:41;;;;;;;7.05;1.95;;;16.60;99.90;;;;;;5032865;28;20215;-62
2022/06/19 08:08:14;;;;;;;5.13;1.50;;;16.70;99.90;;;;;;5009656;28;20659;-62
2022/06/19 08:10:43;;;;;;;5.20;1.73;;;16.70;99.90;;;;;;5030135;28;20311;-62
2022/06/19 08:13:12;;;;;;;4.82;1.52;;;16.50;99.90;;;;;;5015599;28;20709;-62
2022/06/19 08:15:39;;;;;;;6.40;1.67;;;16.70;99.90;;;;;;5020780;28;20220;-62
2022/06/19 08:18:06;;;;;;;10.38;1.67;;;16.80;99.90;;;;;;5009762;28;20227;-62
2022/06/19 08:20:33;;;;;;;7.32;1.83;;;16.80;99.90;;;;;;5019712;28;20649;-63
2022/06/19 08:23:00;;;;;;;4.68;1.50;;;16.80;99.90;;;;;;5032948;28;20212;-63
2022/06/19 08:25:26;;;;;;;9.23;2.25;;;16.60;99.90;;;;;;5009674;28;20228;-62
2022/06/19 08:27:53;;;;;;;6.10;1.95;;;16.40;99.90;;;;;;5038776;28;20185;-62
2022/06/19 08:30:25;;;;;;;7.47;2.00;;;16.40;99.90;;;;;;5007101;28;20770;-62
2022/06/19 08:32:52;;;;;;;6.15;1.73;;;15.80;99.90;;;;;;5036412;28;20224;-63
2022/06/19 08:35:20;;;;;;;9.75;2.20;;;16.40;99.90;;;;;;5011987;28;20889;-62
2022/06/19 08:37:51;;;;;;;4.45;1.60;;;16.30;99.90;;;;;;5045657;28;20192;-62
2022/06/19 08:40:31;;;;;;;6.63;1.95;;;16.40;99.90;;;;;;4998021;28;20638;-62
2022/06/19 08:43:10;;;;;;;4.00;2.00;;;16.50;99.90;;;;;;5044776;28;20884;-62
2022/06/19 08:45:45;;;;;;;4.40;1.77;;;15.30;99.90;;;;;;5015483;28;20247;-62
2022/06/19 08:48:30;;;;;;;3.55;1.90;;;16.00;99.90;;;;;;5020108;28;20876;-62
2022/06/19 08:51:01;;;;;;;4.28;1.55;;;15.40;99.90;;;;;;5000861;28;20221;-62
2022/06/19 08:53:44;;;;;;;3.78;1.70;;;15.90;99.90;;;;;;5022344;28;20225;-62
2022/06/19 08:56:17;;;;;;;4.07;1.70;;;19.20;99.90;;;;;;5007145;28;20224;-62
2022/06/19 08:58:51;;;;;;;7.53;1.88;;;15.90;99.90;;;;;;5032960;28;20217;-61
2022/06/19 09:01:24;;;;;;;5.05;2.20;;;15.80;99.90;;;;;;5004349;28;20247;-62
2022/06/19 09:06:55;;;;;;;3.67;1.80;;;15.90;99.90;;;;;;5026269;28;20259;-62
2022/06/19 09:09:36;;;;;;;6.40;2.03;;;15.70;99.90;;;;;;5028050;28;20343;-61
2022/06/19 09:12:18;;;;;;;4.32;2.05;;;15.90;99.90;;;;;;5023002;28;20239;-62
2022/06/19 09:14:59;;;;;;;5.75;1.92;;;15.60;99.90;;;;;;5024419;28;20323;-61
2022/06/19 09:17:35;;;;;;;6.47;1.88;;;15.70;99.90;;;;;;5013305;28;20229;-61
2022/06/19 09:20:09;;;;;;;3.88;1.67;;;15.70;99.90;;;;;;5014553;28;21377;-62
2022/06/19 09:23:06;;;;;;;3.85;2.22;;;15.70;99.90;;;;;;5049613;28;20192;-62
2022/06/19 09:25:45;;;;;;;9.25;2.17;;;15.80;99.90;;;;;;5041727;28;20201;-62
2022/06/19 09:28:19;;;;;;;6.03;1.90;;;16.00;99.90;;;;;;5036867;28;20208;-61
2022/06/19 09:30:50;;;;;;;4.95;1.70;;;16.10;99.90;;;;;;5028880;28;23653;-62
2022/06/19 09:33:24;;;;;;;4.00;1.80;;;15.60;99.90;;;;;;5034141;28;20312;-62
2022/06/19 09:35:57;;;;;;;5.18;1.90;;;16.10;99.90;;;;;;5028423;28;20228;-62
2022/06/19 09:38:33;;;;;;;5.55;2.13;;;16.10;99.90;;;;;;5048648;28;20329;-62
2022/06/19 09:41:05;;;;;;;3.95;1.85;;;16.30;99.90;;;;;;5035935;28;20228;-61
2022/06/19 09:43:36;;;;;;;3.78;1.60;;;14.40;99.90;;;;;;5045564;22;20703;-61
2022/06/19 09:46:07;;;;;;;3.35;1.50;;;16.30;99.90;;;;;;5057803;28;20220;-62
2022/06/19 09:48:41;;;;;;;2.90;1.70;;;16.30;99.90;;;;;;5049634;28;20215;-62
2022/06/19 09:51:13;;;;;;;5.97;1.50;;;16.30;99.90;;;;;;5042505;28;20208;-61
2022/06/19 09:53:45;;;;;;;2.75;1.50;;;16.20;99.90;;;;;;5061013;28;20196;-62
2022/06/19 09:56:32;;;;;;;3.85;1.83;;;16.20;99.90;;;;;;5028987;28;20571;-62
2022/06/19 09:59:06;;;;;;;6.45;2.20;;;16.10;99.90;;;;;;5036093;28;20708;-62
2022/06/19 10:01:34;;;;;;;6.75;2.38;;;16.20;99.90;;;;;;5041088;28;20264;-61
2022/06/19 10:04:06;;;;;;;5.47;1.50;;;19.10;99.90;;;;;;5036549;28;20205;-62
2022/06/19 10:06:40;;;;;;;3.28;1.85;;;16.10;99.90;;;;;;5024621;28;20200;-62
2022/06/19 10:09:20;;;;;;;4.13;1.80;;;16.20;99.90;;;;;;5049026;28;20289;-62
2022/06/19 10:11:51;;;;;;;5.53;2.40;;;16.20;99.90;;;;;;5057178;28;20215;-61
2022/06/19 10:14:34;;;;;;;5.53;2.72;;;16.10;99.90;;;;;;5034703;28;20941;-62
2022/06/19 10:17:05;;;;;;;7.80;1.90;;;16.10;99.90;;;;;;5035778;28;20606;-63
2022/06/19 10:19:44;;;;;;;5.07;2.00;;;16.00;99.90;;;;;;5047160;28;20228;-61
2022/06/19 10:22:25;;;;;;;4.70;2.15;;;16.00;99.90;;;;;;5033349;28;20231;-62
2022/06/19 10:25:06;;;;;;;3.45;1.80;;;16.00;99.90;;;;;;5057307;28;20202;-62
2022/06/19 10:27:42;;;;;;;5.38;2.10;;;16.00;99.90;;;;;;5063598;28;20289;-62
2022/06/19 10:30:14;;;;;;;3.47;1.88;;;16.00;99.90;;;;;;5042263;28;20743;-62
2022/06/19 10:32:53;;;;;;;6.60;2.30;;;16.10;99.90;;;;;;5057851;28;20227;-61
2022/06/19 10:35:32;;;;;;;3.33;1.90;;;16.00;99.90;;;;;;5035757;28;20232;-61
2022/06/19 10:38:14;;;;;;;4.80;2.38;;;15.90;99.90;;;;;;5018639;28;20228;-62
2022/06/19 10:40:46;;;;;;;3.97;2.30;;;15.90;99.90;;;;;;5052371;28;20201;-62
2022/06/19 10:43:34;;;;;;;5.45;1.58;;;15.90;99.90;;;;;;5048230;28;20201;-62
2022/06/19 10:46:07;;;;;;;5.43;1.92;;;15.90;99.90;;;;;;5054219;28;20209;-62
2022/06/19 10:48:45;;;;;;;5.60;2.33;;;16.00;99.90;;;;;;5043150;28;20220;-62
2022/06/19 10:51:32;;;;;;;6.13;2.40;;;15.90;99.90;;;;;;5020940;28;20230;-63
2022/06/19 10:54:45;;;;;;;5.75;2.00;;;15.80;99.90;;;;;;5047385;28;20208;-63
2022/06/19 10:57:17;;;;;;;4.65;2.13;;;15.70;99.90;;;;;;4984102;28;20249;-63
2022/06/19 10:59:44;;;;;;;3.33;2.25;;;15.80;99.90;;;;;;5051591;28;20200;-63
2022/06/19 11:05:20;;;;;;;2.75;1.92;;;15.70;99.90;;;;;;5045819;28;20480;-63
2022/06/19 11:07:48;;;;;;;4.18;2.28;;;15.80;99.90;;;;;;5048814;28;20204;-62
2022/06/19 11:10:19;;;;;;;6.20;2.03;;;15.70;99.90;;;;;;5039033;28;20269;-62
2022/06/19 11:12:49;;;;;;;3.65;2.15;;;15.70;99.90;;;;;;5036303;28;20224;-63
2022/06/19 11:15:27;;;;;;;3.60;2.13;;;15.80;99.90;;;;;;5065893;28;20224;-62
2022/06/19 11:18:11;;;;;;;3.92;2.00;;;16.00;99.90;;;;;;5038723;28;20215;-63
2022/06/19 11:20:39;;;;;;;5.18;2.10;;;16.10;99.90;;;;;;5052999;28;20654;-63
2022/06/19 11:23:18;;;;;;;5.50;1.60;;;16.20;99.90;;;;;;5037948;28;20725;-64
2022/06/19 11:26:06;;;;;;;4.85;1.88;;;15.90;99.90;;;;;;5037753;28;20204;-63
2022/06/19 11:28:48;;;;;;;4.35;1.63;;;15.90;99.90;;;;;;5046043;28;20272;-62
2022/06/19 11:31:18;;;;;;;1.73;1.45;;;16.00;99.90;;;;;;5056672;28;20687;-63
2022/06/19 11:33:47;;;;;;;5.32;1.52;;;16.00;99.90;;;;;;5056551;28;20196;-63
2022/06/19 11:36:28;;;;;;;4.75;1.70;;;15.90;99.90;;;;;;5042574;28;20313;-63
2022/06/19 11:38:56;;;;;;;2.80;1.60;;;16.10;99.90;;;;;;5037515;28;20709;-62
2022/06/19 11:41:32;;;;;;;3.78;1.83;;;16.20;99.90;;;;;;5043711;28;20225;-62
2022/06/19 11:44:13;;;;;;;2.97;1.55;;;16.20;99.90;;;;;;5037343;28;20240;-63
2022/06/19 11:46:47;;;;;;;2.83;1.67;;;16.10;99.90;;;;;;5040791;28;20712;-63
2022/06/19 11:49:28;;;;;;;3.35;1.67;;;16.10;99.90;;;;;;5042191;28;20227;-62
2022/06/19 11:51:58;;;;;;;6.20;1.75;;;16.50;99.90;;;;;;5042981;28;20207;-62
2022/06/19 11:54:29;;;;;;;6.53;1.63;;;19.60;99.90;;;;;;5040305;28;20220;-62
2022/06/19 11:56:57;;;;;;;4.10;1.67;;;16.40;99.90;;;;;;5015301;28;20231;-63
2022/06/19 11:59:35;;;;;;;2.20;1.45;;;16.40;99.90;;;;;;5043797;28;20219;-62
2022/06/19 12:02:20;;;;;;;4.28;1.80;;;16.10;99.90;;;;;;5038682;28;20407;-62
2022/06/19 12:04:54;;;;;;;3.03;1.80;;;16.10;99.90;;;;;;5041224;28;20298;-64
2022/06/19 12:07:24;;;;;;;5.47;1.90;;;16.10;99.90;;;;;;5050654;28;20565;-62
2022/06/19 12:09:58;;;;;;;2.85;1.60;;;16.00;99.90;;;;;;5041300;28;20200;-62
2022/06/19 12:12:26;;;;;;;4.60;1.55;;;15.90;99.90;;;;;;5040545;28;20736;-63
2022/06/19 12:15:00;;;;;;;3.30;1.83;;;16.00;99.90;;;;;;5025822;28;20711;-63
2022/06/19 12:17:38;;;;;;;4.32;1.50;;;16.00;99.90;;;;;;5049821;28;20437;-62
2022/06/19 12:20:24;;;;;;;3.00;1.48;;;17.60;99.90;;;;;;5022066;28;23614;-63
2022/06/19 12:22:54;;;;;;;2.95;1.50;;;16.00;99.90;;;;;;5036428;28;20587;-63
2022/06/19 12:25:35;;;;;;;3.17;1.30;;;15.90;99.90;;;;;;5033002;28;20906;-62
2022/06/19 12:28:10;;;;;;;3.67;1.65;;;15.80;99.90;;;;;;5038144;28;20979;-62
2022/06/19 12:30:42;;;;;;;4.05;1.50;;;14.60;99.90;;;;;;5057920;28;20195;-62
2022/06/19 12:33:17;;;;;;;2.40;1.35;;;15.70;99.90;;;;;;5032347;28;20224;-62
2022/06/19 12:35:49;;;;;;;4.80;1.92;;;15.70;99.90;;;;;;5056294;28;20223;-62
2022/06/19 12:38:19;;;;;;;1.77;1.17;;;14.80;99.90;;;;;;5042958;28;20231;-62
2022/06/19 12:41:05;;;;;;;3.72;1.92;;;15.50;99.90;;;;;;5004450;28;20220;-62
2022/06/19 12:43:46;;;;;;;3.38;1.42;;;14.30;99.90;;;;;;5037357;28;20224;-61
2022/06/19 12:46:22;;;;;;;2.10;1.20;;;15.50;99.90;;;;;;5038029;28;20600;-63
2022/06/19 12:48:58;;;;;;;7.13;1.50;;;15.50;99.90;;;;;;5043576;28;20384;-62
2022/06/19 12:51:34;;;;;;;3.72;1.40;;;15.40;99.90;;;;;;5046895;28;20525;-62
2022/06/19 12:54:29;;;;;;;9.35;1.90;;;15.60;99.90;;;;;;5012904;28;20215;-63
2022/06/19 12:57:10;;;;;;;2.25;1.30;;;15.40;99.90;;;;;;5030775;28;20228;-64
2022/06/19 13:00:02;;;;;;;2.78;1.38;;;15.40;99.90;;;;;;5035596;28;20220;-62
2022/06/19 13:02:48;;;;;;;5.25;1.60;;;15.50;99.90;;;;;;5043257;28;20220;-62
2022/06/19 13:05:23;;;;;;;2.58;1.42;;;15.60;99.90;;;;;;5044279;28;20480;-62
2022/06/19 13:08:02;;;;;;;2.22;1.35;;;15.50;99.90;;;;;;5062567;28;20216;-62
2022/06/19 13:10:42;;;;;;;3.47;1.75;;;15.50;99.90;;;;;;5044764;28;20220;-63
2022/06/19 13:13:54;;;;;;;4.32;1.75;;;15.50;99.90;;;;;;5036126;28;20244;-62